createdAt,value
2023-03-19T00:02:09.000Z,11.70
2023-03-19T00:05:18.982Z,11.70
2023-03-19T00:08:22.663Z,11.70
2023-03-19T00:11:25.797Z,11.70
2023-03-19T00:14:30.115Z,11.70
2023-03-19T00:17:33.045Z,11.70
2023-03-19T00:20:36.478Z,11.70
2023-03-19T00:23:39.462Z,11.70
2023-03-19T00:26:42.475Z,11.70
2023-03-19T00:29:46.771Z,11.70
2023-03-19T00:32:49.974Z,11.70
2023-03-19T00:35:54.170Z,11.70
2023-03-19T00:38:57.520Z,11.70
2023-03-19T00:42:00.625Z,11.70
2023-03-19T00:45:05.428Z,11.60
2023-03-19T00:48:08.431Z,11.60
2023-03-19T00:51:12.300Z,11.50
2023-03-19T00:54:15.408Z,11.50
2023-03-19T00:57:18.371Z,11.50
2023-03-19T01:00:23.479Z,11.40
2023-03-19T01:03:26.417Z,11.40
2023-03-19T01:06:29.392Z,11.30
2023-03-19T01:09:32.738Z,11.30
2023-03-19T01:12:35.894Z,11.20
2023-03-19T01:15:41.141Z,11.30
2023-03-19T01:18:44.121Z,11.30
2023-03-19T01:21:47.182Z,11.30
2023-03-19T01:24:50.270Z,11.40
2023-03-19T01:27:53.401Z,11.40
2023-03-19T01:31:01.848Z,11.30
2023-03-19T01:34:05.717Z,11.20
2023-03-19T01:37:09.305Z,11.20
2023-03-19T01:40:13.996Z,11.20
2023-03-19T01:43:19.339Z,11.20
2023-03-19T01:46:29.698Z,11.20
2023-03-19T01:49:33.121Z,11.20
2023-03-19T01:52:36.487Z,11.20
2023-03-19T01:55:41.671Z,11.10
2023-03-19T01:58:47.508Z,11.10
2023-03-19T02:01:58.406Z,11.10
2023-03-19T02:05:04.429Z,11.10
2023-03-19T02:08:09.945Z,11.10
2023-03-19T02:11:13.154Z,11.10
2023-03-19T02:14:16.091Z,11.10
2023-03-19T02:17:21.532Z,11.00
2023-03-19T02:20:28.069Z,11.00
2023-03-19T02:23:36.831Z,10.90
2023-03-19T02:26:42.678Z,10.90
2023-03-19T02:29:45.588Z,10.80
2023-03-19T02:32:48.560Z,10.80
2023-03-19T02:35:53.300Z,10.60
2023-03-19T02:38:58.446Z,10.60
2023-03-19T02:42:04.478Z,10.50
2023-03-19T02:45:08.762Z,10.60
2023-03-19T02:48:11.717Z,10.50
2023-03-19T02:51:14.664Z,10.50
2023-03-19T02:54:17.630Z,10.40
2023-03-19T02:57:22.001Z,10.40
2023-03-19T03:00:25.555Z,10.40
2023-03-19T03:03:28.688Z,10.30
2023-03-19T03:06:32.357Z,10.20
2023-03-19T03:09:35.700Z,10.20
2023-03-19T03:12:40.080Z,10.20
2023-03-19T03:15:43.108Z,10.10
2023-03-19T03:18:46.015Z,10.10
2023-03-19T03:21:48.928Z,10.00
2023-03-19T03:24:51.882Z,10.00
2023-03-19T03:27:56.160Z,10.00
2023-03-19T03:31:02.780Z,10.00
2023-03-19T03:34:05.730Z,10.10
2023-03-19T03:37:09.313Z,10.10
2023-03-19T03:40:14.267Z,10.10
2023-03-19T03:43:19.243Z,10.10
2023-03-19T03:46:22.217Z,10.10
2023-03-19T03:49:25.250Z,10.00
2023-03-19T03:52:31.278Z,10.00
2023-03-19T03:55:34.469Z,10.00
2023-03-19T03:58:39.296Z,10.00
2023-03-19T04:01:42.271Z,10.00
2023-03-19T04:04:45.241Z,9.90
2023-03-19T04:07:48.231Z,9.90
2023-03-19T04:10:51.457Z,9.90
2023-03-19T04:13:57.699Z,9.90
2023-03-19T04:17:00.758Z,9.90
2023-03-19T04:20:04.934Z,9.80
2023-03-19T04:23:08.314Z,9.80
2023-03-19T04:26:12.204Z,9.80
2023-03-19T04:29:16.651Z,9.80
2023-03-19T04:32:19.727Z,9.80
2023-03-19T04:35:22.853Z,9.70
2023-03-19T04:38:27.577Z,9.80
2023-03-19T04:41:30.804Z,9.80
2023-03-19T04:44:35.198Z,9.70
2023-03-19T04:47:38.161Z,9.80
2023-03-19T04:50:41.307Z,9.80
2023-03-19T04:53:44.642Z,9.80
2023-03-19T04:56:47.617Z,9.80
2023-03-19T04:59:51.970Z,9.80
2023-03-19T05:02:54.938Z,9.90
2023-03-19T05:05:57.848Z,9.90
2023-03-19T05:09:00.866Z,10.00
2023-03-19T05:12:03.808Z,10.00
2023-03-19T05:15:09.467Z,10.10
2023-03-19T05:18:12.906Z,10.10
2023-03-19T05:21:16.036Z,10.20
2023-03-19T05:24:18.974Z,10.20
2023-03-19T05:27:21.972Z,10.20
2023-03-19T05:30:27.337Z,10.20
2023-03-19T05:33:30.305Z,10.30
2023-03-19T05:36:33.493Z,10.30
2023-03-19T05:39:36.438Z,10.20
2023-03-19T05:42:39.587Z,10.20
2023-03-19T05:45:43.829Z,10.20
2023-03-19T05:48:46.776Z,10.20
2023-03-19T05:51:49.854Z,10.20
2023-03-19T05:54:52.893Z,10.20
2023-03-19T05:57:55.897Z,10.30
2023-03-19T06:01:00.245Z,10.20
2023-03-19T06:04:05.614Z,10.30
2023-03-19T06:07:09.243Z,10.30
2023-03-19T06:10:13.005Z,10.30
2023-03-19T06:13:16.095Z,10.30
2023-03-19T06:16:20.442Z,10.30
2023-03-19T06:19:23.865Z,10.40
2023-03-19T06:22:26.965Z,10.40
2023-03-19T06:25:29.953Z,10.30
2023-03-19T06:28:33.902Z,10.30
2023-03-19T06:31:39.386Z,10.30
2023-03-19T06:34:42.465Z,10.40
2023-03-19T06:37:45.401Z,10.50
2023-03-19T06:40:48.342Z,10.60
2023-03-19T06:43:51.461Z,10.60
2023-03-19T06:46:55.750Z,10.80
2023-03-19T06:49:59.768Z,10.80
2023-03-19T06:53:03.246Z,10.70
2023-03-19T06:56:06.559Z,10.80
2023-03-19T06:59:13.012Z,10.90
2023-03-19T07:02:17.323Z,11.00
2023-03-19T07:05:20.373Z,11.20
2023-03-19T07:08:23.427Z,11.30
2023-03-19T07:11:26.393Z,11.40
2023-03-19T07:14:29.496Z,11.50
2023-03-19T07:17:33.760Z,11.50
2023-03-19T07:20:37.118Z,11.60
2023-03-19T07:23:40.245Z,11.60
2023-03-19T07:26:43.983Z,11.80
2023-03-19T07:29:46.944Z,11.90
2023-03-19T07:32:51.292Z,12.10
2023-03-19T07:35:54.407Z,12.20
2023-03-19T07:38:57.454Z,12.60
2023-03-19T07:42:00.436Z,13.20
2023-03-19T07:45:03.857Z,14.10
2023-03-19T07:48:08.485Z,13.80
2023-03-19T07:51:11.455Z,13.60
2023-03-19T07:54:14.425Z,13.60
2023-03-19T07:57:17.478Z,13.30
2023-03-19T08:00:20.929Z,13.20
2023-03-19T08:03:25.206Z,13.30
2023-03-19T08:06:28.252Z,13.40
2023-03-19T08:09:32.228Z,13.50
2023-03-19T08:12:40.901Z,13.60
2023-03-19T08:15:44.003Z,13.70
2023-03-19T08:18:48.889Z,13.70
2023-03-19T08:21:52.560Z,13.80
2023-03-19T08:24:55.546Z,13.60
2023-03-19T08:27:58.572Z,13.50
2023-03-19T08:31:08.163Z,13.60
2023-03-19T08:34:12.569Z,13.60
2023-03-19T08:37:15.596Z,13.60
2023-03-19T08:40:18.601Z,13.90
2023-03-19T08:43:21.528Z,14.10
2023-03-19T08:46:24.586Z,14.30
2023-03-19T08:49:28.959Z,14.90
2023-03-19T08:52:32.015Z,15.80
2023-03-19T08:55:34.983Z,16.90
2023-03-19T08:58:38.080Z,17.20
2023-03-19T09:01:41.824Z,17.00
2023-03-19T09:04:46.899Z,16.60
2023-03-19T09:07:51.900Z,16.30
2023-03-19T09:10:55.049Z,16.20
2023-03-19T09:13:58.038Z,15.90
2023-03-19T09:17:01.235Z,15.90
2023-03-19T09:20:07.400Z,16.10
2023-03-19T09:23:10.989Z,16.30
2023-03-19T09:26:13.928Z,16.70
2023-03-19T09:29:17.704Z,17.70
2023-03-19T09:32:20.945Z,18.80
2023-03-19T09:35:26.596Z,19.00
2023-03-19T09:38:29.691Z,19.00
2023-03-19T09:41:40.953Z,18.80
2023-03-19T09:44:46.514Z,18.60
2023-03-19T09:47:53.610Z,18.30
2023-03-19T09:51:01.218Z,18.10
2023-03-19T09:54:08.611Z,18.40
2023-03-19T09:57:14.925Z,18.60
2023-03-19T10:00:24.390Z,18.80
2023-03-19T10:03:43.104Z,18.90
2023-03-19T10:06:48.255Z,19.00
2023-03-19T10:10:04.307Z,18.90
2023-03-19T10:13:19.177Z,18.60
2023-03-19T10:16:24.843Z,18.60
2023-03-19T10:19:40.488Z,18.80
2023-03-19T10:22:48.732Z,18.90
2023-03-19T10:25:55.046Z,19.10
2023-03-19T10:29:04.750Z,19.70
2023-03-19T10:32:18.266Z,19.90
2023-03-19T10:35:25.329Z,21.00
2023-03-19T10:38:33.419Z,22.80
2023-03-19T10:41:48.213Z,24.30
2023-03-19T10:44:54.938Z,25.30
2023-03-19T10:47:59.345Z,26.20
2023-03-19T10:51:05.486Z,25.80
2023-03-19T10:54:21.602Z,26.80
2023-03-19T10:57:28.439Z,27.40
2023-03-19T11:00:33.730Z,27.90
2023-03-19T11:03:38.579Z,27.10
2023-03-19T11:06:41.824Z,25.50
2023-03-19T11:09:48.966Z,24.10
2023-03-19T11:12:56.757Z,22.70
2023-03-19T11:16:01.509Z,21.70
2023-03-19T11:19:04.568Z,20.80
2023-03-19T11:22:20.401Z,20.30
2023-03-19T11:25:29.390Z,20.00
2023-03-19T11:28:33.824Z,20.00
2023-03-19T11:31:42.642Z,20.50
2023-03-19T11:34:53.777Z,20.80
2023-03-19T11:37:58.517Z,20.80
2023-03-19T11:41:14.328Z,20.80
2023-03-19T11:44:23.668Z,20.80
2023-03-19T11:47:32.383Z,20.60
2023-03-19T11:50:48.252Z,20.70
2023-03-19T11:54:04.892Z,20.20
2023-03-19T11:57:17.396Z,20.30
2023-03-19T12:00:31.208Z,20.20
2023-03-19T12:04:10.948Z,19.80
2023-03-19T12:07:24.602Z,19.70
2023-03-19T12:10:32.439Z,19.40
2023-03-19T12:13:45.599Z,19.30
2023-03-19T12:17:04.242Z,19.10
2023-03-19T12:20:29.321Z,18.90
2023-03-19T12:23:41.398Z,18.70
2023-03-19T12:26:56.519Z,18.60
2023-03-19T12:30:04.658Z,18.50
2023-03-19T12:33:16.032Z,18.40
2023-03-19T12:36:24.499Z,18.40
2023-03-19T12:39:33.622Z,18.40
2023-03-19T12:42:41.001Z,18.40
2023-03-19T12:45:48.819Z,18.40
2023-03-19T12:48:54.953Z,18.50
2023-03-19T12:52:04.159Z,18.70
2023-03-19T12:55:17.618Z,18.80
2023-03-19T12:58:28.244Z,18.80
2023-03-19T13:01:36.267Z,18.70
2023-03-19T13:04:47.014Z,18.80
2023-03-19T13:07:56.904Z,18.60
2023-03-19T13:11:00.818Z,18.60
2023-03-19T13:14:13.037Z,18.50
2023-03-19T13:17:25.049Z,18.50
2023-03-19T13:20:43.750Z,18.40
2023-03-19T13:23:50.999Z,18.30
2023-03-19T13:26:55.398Z,18.20
2023-03-19T13:30:17.845Z,18.00
2023-03-19T13:33:24.475Z,18.00
2023-03-19T13:36:30.715Z,17.90
2023-03-19T13:39:35.980Z,18.00
2023-03-19T13:42:42.543Z,18.30
2023-03-19T13:45:45.707Z,18.50
2023-03-19T13:48:54.573Z,18.20
2023-03-19T13:52:01.361Z,18.00
2023-03-19T13:55:32.732Z,17.60
2023-03-19T13:58:52.185Z,17.30
2023-03-19T14:01:55.491Z,17.30
2023-03-19T14:05:02.887Z,17.20
2023-03-19T14:08:19.515Z,17.00
2023-03-19T14:11:24.901Z,17.00
2023-03-19T14:14:27.932Z,16.90
2023-03-19T14:17:34.316Z,16.90
2023-03-19T14:20:48.369Z,16.80
2023-03-19T14:23:55.256Z,16.60
2023-03-19T14:27:02.224Z,16.80
2023-03-19T14:30:12.200Z,16.90
2023-03-19T14:33:20.935Z,16.70
2023-03-19T14:36:25.915Z,16.60
2023-03-19T14:39:31.309Z,16.40
2023-03-19T14:42:40.705Z,16.30
2023-03-19T14:45:50.393Z,16.30
2023-03-19T14:49:28.908Z,16.40
2023-03-19T14:52:35.913Z,16.50
2023-03-19T14:55:39.464Z,16.40
2023-03-19T14:58:53.594Z,16.50
2023-03-19T15:01:56.570Z,16.50
2023-03-19T15:05:00.879Z,16.50
2023-03-19T15:08:08.454Z,16.50
2023-03-19T15:11:36.049Z,16.40
2023-03-19T15:14:53.925Z,16.40
2023-03-19T15:18:04.218Z,16.40
2023-03-19T15:21:08.097Z,16.30
2023-03-19T15:24:17.527Z,16.20
2023-03-19T15:27:22.172Z,16.20
2023-03-19T15:30:32.584Z,16.10
2023-03-19T15:33:41.485Z,16.00
2023-03-19T15:36:47.331Z,15.90
2023-03-19T15:39:55.815Z,15.90
2023-03-19T15:43:02.179Z,15.80
2023-03-19T15:46:06.071Z,15.70
2023-03-19T15:49:13.512Z,15.70
2023-03-19T15:52:19.413Z,15.60
2023-03-19T15:55:27.181Z,15.70
2023-03-19T15:58:33.046Z,15.70
2023-03-19T16:01:36.116Z,15.70
2023-03-19T16:05:06.790Z,15.80
2023-03-19T16:08:09.213Z,15.80
2023-03-19T16:11:27.097Z,15.90
2023-03-19T16:14:40.905Z,15.90
2023-03-19T16:17:44.030Z,15.90
2023-03-19T16:20:52.418Z,15.90
2023-03-19T16:23:59.347Z,15.70
2023-03-19T16:27:07.650Z,15.60
2023-03-19T16:30:19.002Z,15.50
2023-03-19T16:33:22.464Z,15.40
2023-03-19T16:36:29.536Z,15.30
2023-03-19T16:39:35.561Z,15.20
2023-03-19T16:42:41.444Z,15.00
2023-03-19T16:45:44.954Z,15.00
2023-03-19T16:48:47.993Z,14.90
2023-03-19T16:51:51.017Z,14.90
2023-03-19T16:54:55.433Z,14.80
2023-03-19T16:58:02.995Z,14.70
2023-03-19T17:01:13.166Z,14.60
2023-03-19T17:04:17.542Z,14.60
2023-03-19T17:07:20.644Z,14.50
2023-03-19T17:10:27.278Z,14.40
2023-03-19T17:13:33.345Z,14.40
2023-03-19T17:16:36.381Z,14.20
2023-03-19T17:19:40.359Z,14.10
2023-03-19T17:22:43.306Z,14.10
2023-03-19T17:25:46.412Z,13.90
2023-03-19T17:28:51.012Z,13.90
2023-03-19T17:31:55.080Z,13.80
2023-03-19T17:34:58.455Z,13.70
2023-03-19T17:38:01.572Z,13.70
2023-03-19T17:41:13.769Z,13.60
2023-03-19T17:44:18.214Z,13.50
2023-03-19T17:47:21.293Z,13.50
2023-03-19T17:50:26.719Z,13.40
2023-03-19T17:53:30.688Z,13.40
2023-03-19T17:56:33.708Z,13.30
2023-03-19T17:59:38.027Z,13.20
2023-03-19T18:02:41.988Z,13.20
2023-03-19T18:05:45.487Z,13.10
2023-03-19T18:08:48.640Z,13.10
2023-03-19T18:11:51.797Z,13.00
2023-03-19T18:14:56.105Z,13.00
2023-03-19T18:18:01.459Z,12.90
2023-03-19T18:21:04.884Z,12.80
2023-03-19T18:24:07.997Z,12.80
2023-03-19T18:27:11.075Z,12.70
2023-03-19T18:30:18.244Z,12.70
2023-03-19T18:33:25.738Z,12.60
2023-03-19T18:36:31.140Z,12.60
2023-03-19T18:39:38.003Z,12.50
2023-03-19T18:42:40.964Z,12.40
2023-03-19T18:45:48.999Z,12.30
2023-03-19T18:49:01.555Z,12.20
2023-03-19T18:52:04.807Z,12.20
2023-03-19T18:55:08.732Z,12.10
2023-03-19T18:58:20.293Z,12.10
2023-03-19T19:01:26.147Z,12.00
2023-03-19T19:04:29.934Z,12.00
2023-03-19T19:07:33.301Z,12.00
2023-03-19T19:10:38.425Z,12.00
2023-03-19T19:13:55.440Z,12.00
2023-03-19T19:17:00.645Z,12.00
2023-03-19T19:20:03.744Z,12.00
2023-03-19T19:23:06.765Z,12.00
2023-03-19T19:26:19.321Z,12.00
2023-03-19T19:29:24.535Z,11.90
2023-03-19T19:32:30.790Z,11.80
2023-03-19T19:35:33.799Z,11.70
2023-03-19T19:38:36.798Z,11.80
2023-03-19T19:41:40.887Z,11.80
2023-03-19T19:44:45.149Z,11.70
2023-03-19T19:47:49.695Z,11.70
2023-03-19T19:50:53.413Z,11.60
2023-03-19T19:53:56.384Z,11.60
2023-03-19T19:56:59.361Z,11.50
2023-03-19T20:00:02.370Z,11.50
2023-03-19T20:03:19.337Z,11.40
2023-03-19T20:06:22.355Z,11.40
2023-03-19T20:09:26.934Z,11.40
2023-03-19T20:12:33.546Z,11.40
2023-03-19T20:15:37.031Z,11.20
2023-03-19T20:18:43.463Z,11.20
2023-03-19T20:21:46.489Z,11.20
2023-03-19T20:24:51.375Z,11.20
2023-03-19T20:27:57.230Z,11.20
2023-03-19T20:31:01.311Z,11.20
2023-03-19T20:34:05.606Z,11.10
2023-03-19T20:37:09.682Z,11.10
2023-03-19T20:40:14.605Z,11.00
2023-03-19T20:43:27.942Z,11.00
2023-03-19T20:46:31.351Z,10.90
2023-03-19T20:49:35.660Z,10.90
2023-03-19T20:52:38.665Z,10.80
2023-03-19T20:55:43.730Z,10.80
2023-03-19T20:58:47.419Z,10.80
2023-03-19T21:01:52.501Z,10.70
2023-03-19T21:04:57.007Z,10.50
2023-03-19T21:07:59.971Z,10.50
2023-03-19T21:11:03.270Z,10.40
2023-03-19T21:14:07.937Z,10.30
2023-03-19T21:17:11.772Z,10.30
2023-03-19T21:20:21.683Z,10.40
2023-03-19T21:23:31.336Z,10.50
2023-03-19T21:26:38.040Z,10.40
2023-03-19T21:29:41.014Z,10.50
2023-03-19T21:32:44.020Z,10.40
2023-03-19T21:35:48.449Z,10.50
2023-03-19T21:38:52.441Z,10.50
2023-03-19T21:41:57.112Z,10.40
2023-03-19T21:45:00.847Z,10.40
2023-03-19T21:48:23.977Z,10.30
2023-03-19T21:51:29.588Z,10.40
2023-03-19T21:54:32.563Z,10.50
2023-03-19T21:57:36.407Z,10.50
2023-03-19T22:00:39.530Z,10.50
2023-03-19T22:03:42.524Z,10.50
2023-03-19T22:06:47.064Z,10.60
2023-03-19T22:09:50.010Z,10.60
2023-03-19T22:12:53.442Z,10.60
2023-03-19T22:16:00.393Z,10.50
2023-03-19T22:19:03.520Z,10.40
2023-03-19T22:22:09.186Z,10.40
2023-03-19T22:25:13.926Z,10.50
2023-03-19T22:28:20.404Z,10.50
2023-03-19T22:31:24.083Z,10.60
2023-03-19T22:34:28.624Z,10.60
2023-03-19T22:37:32.915Z,10.50
2023-03-19T22:40:36.994Z,10.60
2023-03-19T22:43:39.942Z,10.60
2023-03-19T22:46:43.378Z,10.60
2023-03-19T22:49:46.414Z,10.60
2023-03-19T22:52:50.865Z,10.70
2023-03-19T22:55:53.936Z,10.70
2023-03-19T22:58:56.876Z,10.60
2023-03-19T23:02:01.498Z,10.50
2023-03-19T23:05:30.596Z,10.60
2023-03-19T23:08:34.906Z,10.60
2023-03-19T23:11:39.458Z,10.70
2023-03-19T23:14:42.568Z,10.60
2023-03-19T23:17:46.294Z,10.60
2023-03-19T23:20:49.389Z,10.60
2023-03-19T23:23:54.580Z,10.70
2023-03-19T23:26:59.038Z,10.70
2023-03-19T23:30:02.694Z,10.70
2023-03-19T23:33:05.819Z,10.70
2023-03-19T23:36:09.352Z,10.70
2023-03-19T23:39:14.018Z,10.60
2023-03-19T23:42:27.495Z,10.60
2023-03-19T23:45:35.226Z,10.60
2023-03-19T23:48:39.595Z,10.60
2023-03-19T23:51:42.947Z,10.70
2023-03-19T23:54:47.504Z,10.70
2023-03-19T23:57:50.969Z,10.80
